sensor_id;sensor_type;location;lat;lon;timestamp;pressure;altitude;pressure_sealevel;temperature;humidity
51781;BME280;37844;57.126;24.288;2023-06-14T00:01:25;101956.09;;;14.25;100.00
51781;BME280;37844;57.126;24.288;2023-06-14T00:04:09;101950.13;;;14.30;100.00
51781;BME280;37844;57.126;24.288;2023-06-14T00:06:54;101954.53;;;14.34;100.00
51781;BME280;37844;57.126;24.288;2023-06-14T00:09:40;101954.41;;;14.27;100.00
51781;BME280;37844;57.126;24.288;2023-06-14T00:12:24;101961.25;;;14.23;100.00
51781;BME280;37844;57.126;24.288;2023-06-14T00:15:08;101968.09;;;14.18;100.00
51781;BME280;37844;57.126;24.288;2023-06-14T00:17:55;101962.94;;;14.19;100.00
51781;BME280;37844;57.126;24.288;2023-06-14T00:20:40;101962.13;;;14.22;100.00
51781;BME280;37844;57.126;24.288;2023-06-14T00:23:26;101964.72;;;14.22;100.00
51781;BME280;37844;57.126;24.288;2023-06-14T00:26:10;101975.59;;;14.04;100.00
51781;BME280;37844;57.126;24.288;2023-06-14T00:28:54;101972.16;;;14.04;100.00
51781;BME280;37844;57.126;24.288;2023-06-14T00:31:38;101966.84;;;13.97;100.00
51781;BME280;37844;57.126;24.288;2023-06-14T00:34:22;101975.59;;;14.04;100.00
51781;BME280;37844;57.126;24.288;2023-06-14T00:37:06;101978.09;;;13.98;100.00
51781;BME280;37844;57.126;24.288;2023-06-14T00:39:50;101971.88;;;13.90;100.00
51781;BME280;37844;57.126;24.288;2023-06-14T00:42:34;101984.13;;;13.95;100.00
51781;BME280;37844;57.126;24.288;2023-06-14T00:45:18;101983.97;;;13.89;100.00
51781;BME280;37844;57.126;24.288;2023-06-14T00:48:04;101981.44;;;13.91;100.00
51781;BME280;37844;57.126;24.288;2023-06-14T00:50:50;101985.72;;;13.89;100.00
51781;BME280;37844;57.126;24.288;2023-06-14T00:53:36;101990.88;;;13.89;100.00
51781;BME280;37844;57.126;24.288;2023-06-14T00:56:23;101984.66;;;13.81;100.00
51781;BME280;37844;57.126;24.288;2023-06-14T00:59:07;101993.44;;;13.87;100.00
51781;BME280;37844;57.126;24.288;2023-06-14T01:01:51;101995.16;;;13.87;100.00
51781;BME280;37844;57.126;24.288;2023-06-14T01:04:35;101983.06;;;13.87;100.00
51781;BME280;37844;57.126;24.288;2023-06-14T01:13:39;101981.00;;;13.69;100.00
51781;BME280;37844;57.126;24.288;2023-06-14T01:16:24;101997.53;;;13.74;100.00
51781;BME280;37844;57.126;24.288;2023-06-14T01:19:10;101997.47;;;13.73;100.00
51781;BME280;37844;57.126;24.288;2023-06-14T01:21:59;101998.09;;;13.60;100.00
51781;BME280;37844;57.126;24.288;2023-06-14T01:24:44;101989.31;;;13.53;100.00
51781;BME280;37844;57.126;24.288;2023-06-14T01:27:28;101997.00;;;13.50;100.00
51781;BME280;37844;57.126;24.288;2023-06-14T01:30:13;101997.59;;;13.38;100.00
51781;BME280;37844;57.126;24.288;2023-06-14T01:32:58;101988.88;;;13.33;100.00
51781;BME280;37844;57.126;24.288;2023-06-14T01:35:44;101996.84;;;13.42;100.00
51781;BME280;37844;57.126;24.288;2023-06-14T01:38:36;102002.19;;;13.50;100.00
51781;BME280;37844;57.126;24.288;2023-06-14T01:41:21;102003.13;;;13.53;100.00
51781;BME280;37844;57.126;24.288;2023-06-14T01:44:06;102002.97;;;13.46;100.00
51781;BME280;37844;57.126;24.288;2023-06-14T01:46:51;101998.75;;;13.51;100.00
51781;BME280;37844;57.126;24.288;2023-06-14T01:49:35;101998.66;;;13.46;100.00
51781;BME280;37844;57.126;24.288;2023-06-14T01:52:19;101998.63;;;13.45;100.00
51781;BME280;37844;57.126;24.288;2023-06-14T01:55:06;102004.75;;;13.48;100.00
51781;BME280;37844;57.126;24.288;2023-06-14T01:57:52;101997.03;;;13.51;100.00
51781;BME280;37844;57.126;24.288;2023-06-14T02:00:36;102002.41;;;13.61;100.00
51781;BME280;37844;57.126;24.288;2023-06-14T02:03:21;101996.41;;;13.63;100.00
51781;BME280;37844;57.126;24.288;2023-06-14T02:06:05;102006.72;;;13.60;100.00
51781;BME280;37844;57.126;24.288;2023-06-14T02:08:49;102006.66;;;13.57;100.00
51781;BME280;37844;57.126;24.288;2023-06-14T02:11:34;102001.56;;;13.60;100.00
51781;BME280;37844;57.126;24.288;2023-06-14T02:14:18;102006.00;;;13.67;100.00
51781;BME280;37844;57.126;24.288;2023-06-14T02:17:02;102006.88;;;13.68;100.00
51781;BME280;37844;57.126;24.288;2023-06-14T02:19:46;101999.19;;;13.72;100.00
51781;BME280;37844;57.126;24.288;2023-06-14T02:22:31;101995.78;;;13.75;100.00
51781;BME280;37844;57.126;24.288;2023-06-14T02:25:15;101997.44;;;13.70;100.00
51781;BME280;37844;57.126;24.288;2023-06-14T02:27:59;102005.41;;;13.81;100.00
51781;BME280;37844;57.126;24.288;2023-06-14T02:30:44;101998.56;;;13.84;100.00
51781;BME280;37844;57.126;24.288;2023-06-14T02:33:28;102000.47;;;13.93;100.00
51781;BME280;37844;57.126;24.288;2023-06-14T02:36:12;102004.81;;;13.94;100.00
51781;BME280;37844;57.126;24.288;2023-06-14T02:38:56;102003.13;;;13.97;100.00
51781;BME280;37844;57.126;24.288;2023-06-14T02:41:41;102000.63;;;14.00;100.00
51781;BME280;37844;57.126;24.288;2023-06-14T02:44:26;102000.75;;;14.08;100.00
51781;BME280;37844;57.126;24.288;2023-06-14T02:47:11;102000.72;;;14.05;100.00
51781;BME280;37844;57.126;24.288;2023-06-14T02:49:55;102003.13;;;13.96;100.00
51781;BME280;37844;57.126;24.288;2023-06-14T02:52:39;101996.31;;;14.01;100.00
51781;BME280;37844;57.126;24.288;2023-06-14T02:55:25;101992.88;;;14.04;100.00
51781;BME280;37844;57.126;24.288;2023-06-14T02:58:10;101996.56;;;14.15;100.00
51781;BME280;37844;57.126;24.288;2023-06-14T03:00:54;102004.22;;;14.09;100.00
51781;BME280;37844;57.126;24.288;2023-06-14T03:03:38;102006.16;;;14.20;100.00
51781;BME280;37844;57.126;24.288;2023-06-14T03:06:23;102007.19;;;14.30;100.00
51781;BME280;37844;57.126;24.288;2023-06-14T03:09:08;102005.63;;;14.40;100.00
51781;BME280;37844;57.126;24.288;2023-06-14T03:11:53;102004.03;;;14.47;100.00
51781;BME280;37844;57.126;24.288;2023-06-14T03:14:37;102011.03;;;14.51;100.00
51781;BME280;37844;57.126;24.288;2023-06-14T03:17:22;102010.16;;;14.50;100.00
51781;BME280;37844;57.126;24.288;2023-06-14T03:20:08;102006.00;;;14.57;100.00
51781;BME280;37844;57.126;24.288;2023-06-14T03:22:52;102007.88;;;14.69;100.00
51781;BME280;37844;57.126;24.288;2023-06-14T03:25:37;102008.03;;;14.76;100.00
51781;BME280;37844;57.126;24.288;2023-06-14T03:28:22;102013.19;;;14.75;100.00
51781;BME280;37844;57.126;24.288;2023-06-14T03:31:06;102004.53;;;14.76;100.00
51781;BME280;37844;57.126;24.288;2023-06-14T03:33:50;102018.63;;;14.90;100.00
51781;BME280;37844;57.126;24.288;2023-06-14T03:36:34;102017.81;;;14.93;100.00
51781;BME280;37844;57.126;24.288;2023-06-14T03:39:18;102018.75;;;14.99;100.00
51781;BME280;37844;57.126;24.288;2023-06-14T03:42:03;102023.22;;;15.08;100.00
51781;BME280;37844;57.126;24.288;2023-06-14T03:44:47;102012.22;;;15.27;100.00
51781;BME280;37844;57.126;24.288;2023-06-14T03:47:31;102014.13;;;15.38;100.00
51781;BME280;37844;57.126;24.288;2023-06-14T03:50:15;102015.91;;;15.40;100.00
51781;BME280;37844;57.126;24.288;2023-06-14T03:52:59;102017.00;;;15.59;100.00
51781;BME280;37844;57.126;24.288;2023-06-14T03:55:45;102011.91;;;15.68;100.00
51781;BME280;37844;57.126;24.288;2023-06-14T03:58:29;102017.31;;;15.84;100.00
51781;BME280;37844;57.126;24.288;2023-06-14T04:01:13;102015.69;;;15.94;100.00
51781;BME280;37844;57.126;24.288;2023-06-14T04:03:57;102019.22;;;15.99;100.00
51781;BME280;37844;57.126;24.288;2023-06-14T04:06:42;102015.03;;;16.13;100.00
51781;BME280;37844;57.126;24.288;2023-06-14T04:09:26;102017.72;;;16.22;100.00
51781;BME280;37844;57.126;24.288;2023-06-14T04:12:11;102014.41;;;16.37;100.00
51781;BME280;37844;57.126;24.288;2023-06-14T04:14:58;102018.84;;;16.47;100.00
51781;BME280;37844;57.126;24.288;2023-06-14T04:17:42;102009.38;;;16.54;100.00
51781;BME280;37844;57.126;24.288;2023-06-14T04:20:26;102012.06;;;16.68;100.00
51781;BME280;37844;57.126;24.288;2023-06-14T04:23:13;102007.84;;;16.79;100.00
51781;BME280;37844;57.126;24.288;2023-06-14T04:25:58;102011.41;;;16.90;100.00
51781;BME280;37844;57.126;24.288;2023-06-14T04:28:46;102008.88;;;17.00;100.00
51781;BME280;37844;57.126;24.288;2023-06-14T04:31:30;102009.81;;;17.15;100.00
51781;BME280;37844;57.126;24.288;2023-06-14T04:34:17;102013.38;;;17.28;100.00
51781;BME280;37844;57.126;24.288;2023-06-14T04:37:01;102020.44;;;17.45;100.00
51781;BME280;37844;57.126;24.288;2023-06-14T04:39:45;102006.59;;;17.59;100.00
51781;BME280;37844;57.126;24.288;2023-06-14T04:42:29;102016.25;;;17.80;98.44
51781;BME280;37844;57.126;24.288;2023-06-14T04:45:14;102018.06;;;18.09;92.49
51781;BME280;37844;57.126;24.288;2023-06-14T04:48:00;102016.38;;;18.31;85.70
51781;BME280;37844;57.126;24.288;2023-06-14T04:50:44;102005.09;;;18.58;84.41
51781;BME280;37844;57.126;24.288;2023-06-14T04:53:29;102002.47;;;18.83;80.22
51781;BME280;37844;57.126;24.288;2023-06-14T04:56:15;102010.28;;;19.03;77.62
51781;BME280;37844;57.126;24.288;2023-06-14T04:59:00;102009.38;;;19.25;78.14
51781;BME280;37844;57.126;24.288;2023-06-14T05:01:44;102008.44;;;19.46;78.09
51781;BME280;37844;57.126;24.288;2023-06-14T05:04:32;102013.59;;;19.68;75.42
51781;BME280;37844;57.126;24.288;2023-06-14T05:07:16;102010.78;;;20.05;72.90
51781;BME280;37844;57.126;24.288;2023-06-14T05:10:01;102010.66;;;20.23;71.96
51781;BME280;37844;57.126;24.288;2023-06-14T05:12:45;102008.81;;;20.41;69.12
51781;BME280;37844;57.126;24.288;2023-06-14T05:15:31;102008.63;;;20.65;65.10
51781;BME280;37844;57.126;24.288;2023-06-14T05:18:15;102002.34;;;20.85;64.50
51781;BME280;37844;57.126;24.288;2023-06-14T05:21:00;102002.25;;;20.95;65.43
51781;BME280;37844;57.126;24.288;2023-06-14T05:23:45;102006.31;;;21.23;64.07
51781;BME280;37844;57.126;24.288;2023-06-14T05:26:29;102012.13;;;21.51;63.11
51781;BME280;37844;57.126;24.288;2023-06-14T05:29:13;102002.94;;;21.84;61.34
51781;BME280;37844;57.126;24.288;2023-06-14T05:31:57;102007.78;;;22.13;58.72
51781;BME280;37844;57.126;24.288;2023-06-14T05:34:43;101996.94;;;22.36;56.60
51781;BME280;37844;57.126;24.288;2023-06-14T05:37:27;101996.78;;;22.47;56.58
51781;BME280;37844;57.126;24.288;2023-06-14T05:40:11;102007.97;;;22.58;55.61
51781;BME280;37844;57.126;24.288;2023-06-14T05:42:55;102010.78;;;22.97;56.04
51781;BME280;37844;57.126;24.288;2023-06-14T05:45:39;102010.19;;;23.29;55.14
51781;BME280;37844;57.126;24.288;2023-06-14T05:48:23;102008.78;;;23.55;54.90
51781;BME280;37844;57.126;24.288;2023-06-14T05:51:07;102010.91;;;23.80;54.37
51781;BME280;37844;57.126;24.288;2023-06-14T05:53:52;102003.56;;;24.33;52.79
51781;BME280;37844;57.126;24.288;2023-06-14T05:56:37;102010.63;;;24.67;49.62
51781;BME280;37844;57.126;24.288;2023-06-14T05:59:21;102009.22;;;24.53;49.43
51781;BME280;37844;57.126;24.288;2023-06-14T06:02:05;102005.97;;;24.78;47.94
51781;BME280;37844;57.126;24.288;2023-06-14T06:04:50;102014.00;;;25.06;46.77
51781;BME280;37844;57.126;24.288;2023-06-14T06:07:34;102004.84;;;25.20;45.66
51781;BME280;37844;57.126;24.288;2023-06-14T06:10:18;102005.16;;;25.40;44.87
51781;BME280;37844;57.126;24.288;2023-06-14T06:13:01;102009.75;;;25.93;43.97
51781;BME280;37844;57.126;24.288;2023-06-14T06:15:46;102009.88;;;25.90;43.71
51781;BME280;37844;57.126;24.288;2023-06-14T06:18:30;102009.25;;;26.36;43.91
51781;BME280;37844;57.126;24.288;2023-06-14T06:21:14;102008.50;;;26.59;44.60
51781;BME280;37844;57.126;24.288;2023-06-14T06:23:59;102017.03;;;26.93;44.22
51781;BME280;37844;57.126;24.288;2023-06-14T06:26:46;102014.06;;;26.50;42.26
51781;BME280;37844;57.126;24.288;2023-06-14T06:29:30;102015.88;;;27.01;41.95
51781;BME280;37844;57.126;24.288;2023-06-14T06:32:15;102022.94;;;27.49;40.57
51781;BME280;37844;57.126;24.288;2023-06-14T06:34:59;102018.34;;;27.55;39.40
51781;BME280;37844;57.126;24.288;2023-06-14T06:37:44;102010.53;;;28.19;39.62
51781;BME280;37844;57.126;24.288;2023-06-14T06:40:28;102013.13;;;28.63;38.44
51781;BME280;37844;57.126;24.288;2023-06-14T06:43:12;102018.72;;;28.98;39.40
51781;BME280;37844;57.126;24.288;2023-06-14T06:46:00;102012.69;;;29.34;37.91
51781;BME280;37844;57.126;24.288;2023-06-14T06:48:44;102013.19;;;29.42;35.54
51781;BME280;37844;57.126;24.288;2023-06-14T06:51:28;102014.53;;;29.90;36.74
51781;BME280;37844;57.126;24.288;2023-06-14T06:54:12;102020.50;;;29.18;36.02
51781;BME280;37844;57.126;24.288;2023-06-14T06:56:56;102026.78;;;28.54;35.90
51781;BME280;37844;57.126;24.288;2023-06-14T06:59:40;102021.44;;;28.56;36.29
51781;BME280;37844;57.126;24.288;2023-06-14T07:02:25;102025.38;;;28.23;36.32
51781;BME280;37844;57.126;24.288;2023-06-14T07:05:09;102022.84;;;27.29;36.45
51781;BME280;37844;57.126;24.288;2023-06-14T07:07:53;102036.13;;;26.77;36.55
51781;BME280;37844;57.126;24.288;2023-06-14T07:10:43;102033.44;;;27.53;37.13
51781;BME280;37844;57.126;24.288;2023-06-14T07:13:27;102034.59;;;28.15;36.71
51781;BME280;37844;57.126;24.288;2023-06-14T07:16:11;102013.47;;;28.96;36.23
51781;BME280;37844;57.126;24.288;2023-06-14T07:18:55;102038.03;;;29.80;35.33
51781;BME280;37844;57.126;24.288;2023-06-14T07:21:39;102039.88;;;29.59;35.44
51781;BME280;37844;57.126;24.288;2023-06-14T07:24:23;102033.38;;;29.67;36.02
51781;BME280;37844;57.126;24.288;2023-06-14T07:27:07;102024.19;;;29.53;34.82
51781;BME280;37844;57.126;24.288;2023-06-14T07:29:54;102029.75;;;29.87;35.17
51781;BME280;37844;57.126;24.288;2023-06-14T07:32:38;102049.66;;;29.20;35.21
51781;BME280;37844;57.126;24.288;2023-06-14T07:35:22;102035.13;;;29.47;35.32
51781;BME280;37844;57.126;24.288;2023-06-14T07:38:06;102034.00;;;30.27;35.45
51781;BME280;37844;57.126;24.288;2023-06-14T07:40:50;102031.47;;;30.43;34.02
51781;BME280;37844;57.126;24.288;2023-06-14T07:43:34;102025.25;;;30.77;34.80
51781;BME280;37844;57.126;24.288;2023-06-14T07:46:31;102032.06;;;31.34;34.28
51781;BME280;37844;57.126;24.288;2023-06-14T07:49:16;102032.72;;;31.86;33.88
51781;BME280;37844;57.126;24.288;2023-06-14T07:52:00;102030.44;;;31.31;33.37
51781;BME280;37844;57.126;24.288;2023-06-14T07:54:44;102030.50;;;31.47;32.95
51781;BME280;37844;57.126;24.288;2023-06-14T07:57:28;102037.56;;;30.45;32.85
51781;BME280;37844;57.126;24.288;2023-06-14T08:00:13;102033.72;;;30.51;33.57
51781;BME280;37844;57.126;24.288;2023-06-14T08:02:59;102015.78;;;30.72;33.90
51781;BME280;37844;57.126;24.288;2023-06-14T08:05:43;102019.50;;;31.85;33.30
51781;BME280;37844;57.126;24.288;2023-06-14T08:08:31;102015.53;;;31.60;33.53
51781;BME280;37844;57.126;24.288;2023-06-14T08:11:15;102016.78;;;32.32;31.98
51781;BME280;37844;57.126;24.288;2023-06-14T08:13:59;102011.72;;;32.28;32.60
51781;BME280;37844;57.126;24.288;2023-06-14T08:16:43;102014.44;;;31.31;32.71
51781;BME280;37844;57.126;24.288;2023-06-14T08:19:27;102010.22;;;31.76;32.74
51781;BME280;37844;57.126;24.288;2023-06-14T08:22:12;102000.94;;;30.50;33.01
51781;BME280;37844;57.126;24.288;2023-06-14T08:24:56;102007.34;;;29.92;33.71
51781;BME280;37844;57.126;24.288;2023-06-14T08:27:41;101998.00;;;30.72;33.35
51781;BME280;37844;57.126;24.288;2023-06-14T08:30:25;102006.47;;;30.80;32.81
51781;BME280;37844;57.126;24.288;2023-06-14T08:33:09;102001.69;;;31.85;33.70
51781;BME280;37844;57.126;24.288;2023-06-14T08:35:53;102007.81;;;31.22;32.60
51781;BME280;37844;57.126;24.288;2023-06-14T08:38:38;102010.63;;;30.51;32.95
51781;BME280;37844;57.126;24.288;2023-06-14T08:41:22;102015.31;;;30.29;33.50
51781;BME280;37844;57.126;24.288;2023-06-14T08:44:11;101997.09;;;30.56;33.73
51781;BME280;37844;57.126;24.288;2023-06-14T08:46:59;101995.84;;;31.47;33.29
51781;BME280;37844;57.126;24.288;2023-06-14T08:49:46;102003.84;;;31.95;32.25
51781;BME280;37844;57.126;24.288;2023-06-14T08:52:33;101987.78;;;31.80;31.81
51781;BME280;37844;57.126;24.288;2023-06-14T08:55:24;101990.41;;;32.87;32.92
51781;BME280;37844;57.126;24.288;2023-06-14T08:58:09;101984.63;;;33.23;31.34
51781;BME280;37844;57.126;24.288;2023-06-14T09:01:01;101984.59;;;33.79;31.56
51781;BME280;37844;57.126;24.288;2023-06-14T09:03:46;101980.56;;;32.28;31.70
51781;BME280;37844;57.126;24.288;2023-06-14T09:06:32;101968.56;;;32.36;33.31
51781;BME280;37844;57.126;24.288;2023-06-14T09:09:17;101978.41;;;32.94;31.88
51781;BME280;37844;57.126;24.288;2023-06-14T09:12:01;101985.56;;;32.49;31.81
51781;BME280;37844;57.126;24.288;2023-06-14T09:14:45;101980.78;;;33.42;32.09
51781;BME280;37844;57.126;24.288;2023-06-14T09:17:29;101990.69;;;33.81;30.93
51781;BME280;37844;57.126;24.288;2023-06-14T09:20:13;101991.13;;;32.60;31.59
51781;BME280;37844;57.126;24.288;2023-06-14T09:23:02;101984.28;;;32.40;31.51
51781;BME280;37844;57.126;24.288;2023-06-14T09:25:48;101987.59;;;32.29;31.57
51781;BME280;37844;57.126;24.288;2023-06-14T09:28:34;101986.09;;;31.94;32.41
51781;BME280;37844;57.126;24.288;2023-06-14T09:31:20;101976.69;;;32.48;32.88
51781;BME280;37844;57.126;24.288;2023-06-14T09:34:05;101978.44;;;33.50;32.84
51781;BME280;37844;57.126;24.288;2023-06-14T09:36:49;101969.72;;;33.75;31.42
51781;BME280;37844;57.126;24.288;2023-06-14T09:39:34;101967.00;;;33.89;31.73
51781;BME280;37844;57.126;24.288;2023-06-14T09:42:19;101960.69;;;34.17;31.32
51781;BME280;37844;57.126;24.288;2023-06-14T09:45:03;101969.03;;;31.66;31.70
51781;BME280;37844;57.126;24.288;2023-06-14T09:47:51;101971.19;;;29.88;33.92
51781;BME280;37844;57.126;24.288;2023-06-14T09:50:36;101972.91;;;29.32;34.27
51781;BME280;37844;57.126;24.288;2023-06-14T09:53:21;101969.34;;;29.33;34.12
51781;BME280;37844;57.126;24.288;2023-06-14T09:56:10;101978.59;;;29.44;34.58
51781;BME280;37844;57.126;24.288;2023-06-14T09:58:57;101962.03;;;28.99;34.49
51781;BME280;37844;57.126;24.288;2023-06-14T10:01:42;101966.16;;;29.44;34.25
51781;BME280;37844;57.126;24.288;2023-06-14T10:04:29;101957.84;;;30.25;34.34
51781;BME280;37844;57.126;24.288;2023-06-14T10:07:19;101963.38;;;30.39;34.15
51781;BME280;37844;57.126;24.288;2023-06-14T10:10:03;101964.00;;;29.90;34.09
51781;BME280;37844;57.126;24.288;2023-06-14T10:12:49;101959.09;;;30.00;34.96
51781;BME280;37844;57.126;24.288;2023-06-14T10:16:00;101953.50;;;30.23;35.02
51781;BME280;37844;57.126;24.288;2023-06-14T10:24:28;101971.22;;;29.50;36.65
51781;BME280;37844;57.126;24.288;2023-06-14T10:27:13;101965.69;;;29.36;38.82
51781;BME280;37844;57.126;24.288;2023-06-14T10:33:06;101954.28;;;29.89;40.40
51781;BME280;37844;57.126;24.288;2023-06-14T10:36:27;101955.94;;;29.92;41.63
51781;BME280;37844;57.126;24.288;2023-06-14T10:39:15;101958.63;;;29.54;42.00
51781;BME280;37844;57.126;24.288;2023-06-14T10:42:01;101940.38;;;29.65;42.11
51781;BME280;37844;57.126;24.288;2023-06-14T10:44:57;101940.03;;;29.54;41.37
51781;BME280;37844;57.126;24.288;2023-06-14T10:47:49;101949.97;;;29.50;41.33
51781;BME280;37844;57.126;24.288;2023-06-14T10:50:36;101950.34;;;29.03;41.83
51781;BME280;37844;57.126;24.288;2023-06-14T10:53:23;101944.78;;;28.89;41.84
51781;BME280;37844;57.126;24.288;2023-06-14T10:56:23;101954.31;;;28.74;42.22
51781;BME280;37844;57.126;24.288;2023-06-14T10:59:08;101960.06;;;28.43;42.67
51781;BME280;37844;57.126;24.288;2023-06-14T11:04:55;101952.31;;;28.16;43.12
51781;BME280;37844;57.126;24.288;2023-06-14T11:08:02;101952.78;;;28.05;43.76
51781;BME280;37844;57.126;24.288;2023-06-14T11:11:05;101941.81;;;28.15;43.25
51781;BME280;37844;57.126;24.288;2023-06-14T11:13:51;101940.91;;;28.14;42.51
51781;BME280;37844;57.126;24.288;2023-06-14T11:16:36;101944.16;;;28.00;42.55
51781;BME280;37844;57.126;24.288;2023-06-14T11:19:21;101956.44;;;28.03;42.66
51781;BME280;37844;57.126;24.288;2023-06-14T11:22:05;101946.19;;;27.94;42.37
51781;BME280;37844;57.126;24.288;2023-06-14T11:24:50;101934.94;;;27.88;42.16
51781;BME280;37844;57.126;24.288;2023-06-14T11:27:35;101944.38;;;27.72;43.29
51781;BME280;37844;57.126;24.288;2023-06-14T11:30:19;101947.94;;;27.71;43.06
51781;BME280;37844;57.126;24.288;2023-06-14T11:33:03;101947.31;;;27.64;42.33
51781;BME280;37844;57.126;24.288;2023-06-14T11:35:47;101942.50;;;27.52;42.35
51781;BME280;37844;57.126;24.288;2023-06-14T11:38:35;101935.34;;;27.32;42.18
51781;BME280;37844;57.126;24.288;2023-06-14T11:41:20;101931.53;;;27.16;41.87
51781;BME280;37844;57.126;24.288;2023-06-14T11:44:09;101923.13;;;27.28;42.08
51781;BME280;37844;57.126;24.288;2023-06-14T11:46:53;101933.53;;;27.09;42.55
51781;BME280;37844;57.126;24.288;2023-06-14T11:49:37;101931.50;;;26.92;43.67
51781;BME280;37844;57.126;24.288;2023-06-14T11:52:21;101929.47;;;26.75;44.93
51781;BME280;37844;57.126;24.288;2023-06-14T11:55:08;101935.13;;;26.39;44.38
51781;BME280;37844;57.126;24.288;2023-06-14T11:57:55;101936.94;;;26.37;44.84
51781;BME280;37844;57.126;24.288;2023-06-14T12:00:39;101932.69;;;26.33;45.95
51781;BME280;37844;57.126;24.288;2023-06-14T12:03:24;101930.09;;;26.32;45.88
51781;BME280;37844;57.126;24.288;2023-06-14T12:06:09;101921.94;;;26.38;44.89
51781;BME280;37844;57.126;24.288;2023-06-14T12:08:55;101909.66;;;26.37;44.30
51781;BME280;37844;57.126;24.288;2023-06-14T12:11:40;101911.91;;;26.48;43.59
51781;BME280;37844;57.126;24.288;2023-06-14T12:14:28;101907.59;;;26.45;43.43
51781;BME280;37844;57.126;24.288;2023-06-14T12:17:19;101923.16;;;26.54;43.58
51781;BME280;37844;57.126;24.288;2023-06-14T12:20:08;101915.25;;;26.54;43.09
51781;BME280;37844;57.126;24.288;2023-06-14T12:22:56;101922.25;;;26.29;44.29
51781;BME280;37844;57.126;24.288;2023-06-14T12:25:41;101907.22;;;26.31;44.24
51781;BME280;37844;57.126;24.288;2023-06-14T12:28:31;101918.06;;;26.23;44.25
51781;BME280;37844;57.126;24.288;2023-06-14T12:31:16;101901.41;;;26.19;44.95
51781;BME280;37844;57.126;24.288;2023-06-14T12:34:00;101910.13;;;25.96;45.56
51781;BME280;37844;57.126;24.288;2023-06-14T12:36:44;101904.44;;;26.09;45.29
51781;BME280;37844;57.126;24.288;2023-06-14T12:39:30;101884.75;;;25.91;45.57
51781;BME280;37844;57.126;24.288;2023-06-14T12:42:17;101894.50;;;25.89;45.06
51781;BME280;37844;57.126;24.288;2023-06-14T12:45:02;101886.16;;;25.74;45.09
51781;BME280;37844;57.126;24.288;2023-06-14T12:47:46;101889.75;;;25.72;44.88
51781;BME280;37844;57.126;24.288;2023-06-14T12:50:31;101883.22;;;25.84;45.35
51781;BME280;37844;57.126;24.288;2023-06-14T12:53:15;101881.47;;;26.11;45.54
51781;BME280;37844;57.126;24.288;2023-06-14T12:55:59;101885.38;;;26.26;45.30
51781;BME280;37844;57.126;24.288;2023-06-14T12:58:43;101874.16;;;25.92;44.88
51781;BME280;37844;57.126;24.288;2023-06-14T13:01:28;101875.25;;;25.85;45.28
51781;BME280;37844;57.126;24.288;2023-06-14T13:04:12;101877.22;;;25.78;46.37
51781;BME280;37844;57.126;24.288;2023-06-14T13:06:56;101871.34;;;25.70;46.01
51781;BME280;37844;57.126;24.288;2023-06-14T13:09:40;101881.56;;;25.53;46.68
51781;BME280;37844;57.126;24.288;2023-06-14T13:12:24;101875.91;;;25.37;46.78
51781;BME280;37844;57.126;24.288;2023-06-14T13:15:08;101872.25;;;25.41;47.36
51781;BME280;37844;57.126;24.288;2023-06-14T13:17:53;101871.72;;;25.30;47.53
51781;BME280;37844;57.126;24.288;2023-06-14T13:20:37;101874.38;;;25.30;47.90
51781;BME280;37844;57.126;24.288;2023-06-14T13:23:21;101875.50;;;25.21;48.89
51781;BME280;37844;57.126;24.288;2023-06-14T13:26:05;101873.50;;;24.98;49.23
51781;BME280;37844;57.126;24.288;2023-06-14T13:28:49;101876.38;;;24.90;48.99
51781;BME280;37844;57.126;24.288;2023-06-14T13:31:33;101877.38;;;24.86;49.54
51781;BME280;37844;57.126;24.288;2023-06-14T13:34:18;101863.66;;;24.75;49.96
51781;BME280;37844;57.126;24.288;2023-06-14T13:37:02;101865.75;;;24.62;50.58
51781;BME280;37844;57.126;24.288;2023-06-14T13:39:46;101861.28;;;24.64;51.36
51781;BME280;37844;57.126;24.288;2023-06-14T13:42:30;101862.28;;;24.60;50.50
51781;BME280;37844;57.126;24.288;2023-06-14T13:45:16;101856.06;;;24.63;50.58
51781;BME280;37844;57.126;24.288;2023-06-14T13:48:00;101861.28;;;24.64;49.82
51781;BME280;37844;57.126;24.288;2023-06-14T13:50:44;101874.56;;;24.61;49.84
51781;BME280;37844;57.126;24.288;2023-06-14T13:53:31;101857.69;;;24.68;50.27
51781;BME280;37844;57.126;24.288;2023-06-14T13:56:15;101862.84;;;24.71;50.04
51781;BME280;37844;57.126;24.288;2023-06-14T13:58:59;101863.19;;;24.90;49.75
51781;BME280;37844;57.126;24.288;2023-06-14T14:01:44;101870.47;;;24.82;49.30
51781;BME280;37844;57.126;24.288;2023-06-14T14:04:28;101871.97;;;24.91;49.35
51781;BME280;37844;57.126;24.288;2023-06-14T14:07:12;101863.66;;;24.75;48.99
51781;BME280;37844;57.126;24.288;2023-06-14T14:09:56;101868.22;;;24.68;48.48
51781;BME280;37844;57.126;24.288;2023-06-14T14:12:41;101859.13;;;24.79;48.60
51781;BME280;37844;57.126;24.288;2023-06-14T14:15:25;101854.69;;;24.81;48.26
51781;BME280;37844;57.126;24.288;2023-06-14T14:18:09;101858.91;;;24.55;48.25
51781;BME280;37844;57.126;24.288;2023-06-14T14:20:54;101856.00;;;24.66;48.72
51781;BME280;37844;57.126;24.288;2023-06-14T14:23:38;101862.16;;;24.65;49.54
51781;BME280;37844;57.126;24.288;2023-06-14T14:26:23;101859.53;;;24.65;50.02
51781;BME280;37844;57.126;24.288;2023-06-14T14:29:08;101861.31;;;24.63;50.58